sensor_id;sensor_type;location;lat;lon;timestamp;P1;durP1;ratioP1;P2;durP2;ratioP2
48550;SDS011;34397;51.176;6.738;2022-07-01T00:02:38;8.07;;;4.95;;
48550;SDS011;34397;51.176;6.738;2022-07-01T00:05:10;7.63;;;4.95;;
48550;SDS011;34397;51.176;6.738;2022-07-01T00:07:41;7.28;;;4.70;;
48550;SDS011;34397;51.176;6.738;2022-07-01T00:10:13;7.72;;;5.20;;
48550;SDS011;34397;51.176;6.738;2022-07-01T00:12:47;8.40;;;4.60;;
48550;SDS011;34397;51.176;6.738;2022-07-01T00:17:52;9.40;;;4.68;;
48550;SDS011;34397;51.176;6.738;2022-07-01T00:20:23;8.18;;;4.50;;
48550;SDS011;34397;51.176;6.738;2022-07-01T00:22:55;8.77;;;5.10;;
48550;SDS011;34397;51.176;6.738;2022-07-01T00:25:27;9.23;;;4.90;;
48550;SDS011;34397;51.176;6.738;2022-07-01T00:28:00;9.43;;;5.00;;
48550;SDS011;34397;51.176;6.738;2022-07-01T00:33:04;8.63;;;4.70;;
48550;SDS011;34397;51.176;6.738;2022-07-01T00:35:36;9.00;;;5.23;;
48550;SDS011;34397;51.176;6.738;2022-07-01T00:38:08;10.13;;;5.40;;
48550;SDS011;34397;51.176;6.738;2022-07-01T00:40:40;8.07;;;5.05;;
48550;SDS011;34397;51.176;6.738;2022-07-01T00:43:13;10.02;;;5.55;;
48550;SDS011;34397;51.176;6.738;2022-07-01T00:48:18;8.80;;;5.10;;
48550;SDS011;34397;51.176;6.738;2022-07-01T00:50:52;9.90;;;5.60;;
48550;SDS011;34397;51.176;6.738;2022-07-01T00:53:24;10.65;;;5.07;;
48550;SDS011;34397;51.176;6.738;2022-07-01T00:55:57;9.18;;;5.53;;
48550;SDS011;34397;51.176;6.738;2022-07-01T00:58:30;8.93;;;5.07;;
48550;SDS011;34397;51.176;6.738;2022-07-01T01:01:02;10.52;;;5.82;;
48550;SDS011;34397;51.176;6.738;2022-07-01T01:03:34;9.30;;;5.45;;
48550;SDS011;34397;51.176;6.738;2022-07-01T01:06:06;9.93;;;6.13;;
48550;SDS011;34397;51.176;6.738;2022-07-01T01:08:38;9.73;;;5.78;;
48550;SDS011;34397;51.176;6.738;2022-07-01T01:11:10;10.60;;;6.50;;
48550;SDS011;34397;51.176;6.738;2022-07-01T01:13:44;10.05;;;6.05;;
48550;SDS011;34397;51.176;6.738;2022-07-01T01:16:17;9.40;;;5.47;;
48550;SDS011;34397;51.176;6.738;2022-07-01T01:18:50;9.18;;;5.68;;
48550;SDS011;34397;51.176;6.738;2022-07-01T01:21:24;11.27;;;5.72;;
48550;SDS011;34397;51.176;6.738;2022-07-01T01:23:56;10.77;;;6.15;;
48550;SDS011;34397;51.176;6.738;2022-07-01T01:26:29;9.60;;;5.57;;
48550;SDS011;34397;51.176;6.738;2022-07-01T01:29:00;9.88;;;5.40;;
48550;SDS011;34397;51.176;6.738;2022-07-01T01:31:33;9.05;;;5.30;;
48550;SDS011;34397;51.176;6.738;2022-07-01T01:34:05;8.45;;;5.18;;
48550;SDS011;34397;51.176;6.738;2022-07-01T01:36:39;10.40;;;4.97;;
48550;SDS011;34397;51.176;6.738;2022-07-01T01:39:11;11.10;;;5.80;;
48550;SDS011;34397;51.176;6.738;2022-07-01T01:41:43;9.07;;;4.95;;
48550;SDS011;34397;51.176;6.738;2022-07-01T01:44:15;9.20;;;4.90;;
48550;SDS011;34397;51.176;6.738;2022-07-01T01:46:47;11.02;;;5.00;;
48550;SDS011;34397;51.176;6.738;2022-07-01T01:49:18;8.75;;;4.68;;
48550;SDS011;34397;51.176;6.738;2022-07-01T01:51:52;9.25;;;5.30;;
48550;SDS011;34397;51.176;6.738;2022-07-01T01:54:24;8.80;;;5.00;;
48550;SDS011;34397;51.176;6.738;2022-07-01T01:56:56;10.95;;;5.13;;
48550;SDS011;34397;51.176;6.738;2022-07-01T01:59:28;10.68;;;5.30;;
48550;SDS011;34397;51.176;6.738;2022-07-01T02:02:00;11.60;;;4.38;;
48550;SDS011;34397;51.176;6.738;2022-07-01T02:04:32;7.80;;;4.38;;
48550;SDS011;34397;51.176;6.738;2022-07-01T02:07:05;8.80;;;4.20;;
48550;SDS011;34397;51.176;6.738;2022-07-01T02:12:09;9.15;;;4.25;;
48550;SDS011;34397;51.176;6.738;2022-07-01T02:14:41;10.15;;;4.47;;
48550;SDS011;34397;51.176;6.738;2022-07-01T02:17:13;7.68;;;4.43;;
48550;SDS011;34397;51.176;6.738;2022-07-01T02:19:45;11.20;;;5.55;;
48550;SDS011;34397;51.176;6.738;2022-07-01T02:22:18;10.25;;;4.78;;
48550;SDS011;34397;51.176;6.738;2022-07-01T02:27:21;9.70;;;4.63;;
48550;SDS011;34397;51.176;6.738;2022-07-01T02:29:53;7.63;;;3.67;;
48550;SDS011;34397;51.176;6.738;2022-07-01T02:32:25;8.10;;;4.60;;
48550;SDS011;34397;51.176;6.738;2022-07-01T02:34:57;8.75;;;4.35;;
48550;SDS011;34397;51.176;6.738;2022-07-01T02:37:30;12.20;;;5.22;;
48550;SDS011;34397;51.176;6.738;2022-07-01T02:40:03;9.85;;;4.95;;
48550;SDS011;34397;51.176;6.738;2022-07-01T02:42:36;9.68;;;4.50;;
48550;SDS011;34397;51.176;6.738;2022-07-01T02:45:08;7.65;;;4.55;;
48550;SDS011;34397;51.176;6.738;2022-07-01T02:47:40;10.90;;;5.30;;
48550;SDS011;34397;51.176;6.738;2022-07-01T02:50:14;10.30;;;4.72;;
48550;SDS011;34397;51.176;6.738;2022-07-01T02:52:48;9.07;;;4.60;;
48550;SDS011;34397;51.176;6.738;2022-07-01T02:55:19;8.27;;;4.40;;
48550;SDS011;34397;51.176;6.738;2022-07-01T02:57:51;10.68;;;3.83;;
48550;SDS011;34397;51.176;6.738;2022-07-01T03:00:24;8.23;;;4.45;;
48550;SDS011;34397;51.176;6.738;2022-07-01T03:02:56;8.32;;;4.82;;
48550;SDS011;34397;51.176;6.738;2022-07-01T03:05:28;11.27;;;4.72;;
48550;SDS011;34397;51.176;6.738;2022-07-01T03:08:01;7.97;;;4.05;;
48550;SDS011;34397;51.176;6.738;2022-07-01T03:10:33;9.38;;;4.72;;
48550;SDS011;34397;51.176;6.738;2022-07-01T03:13:05;8.20;;;4.00;;
48550;SDS011;34397;51.176;6.738;2022-07-01T03:15:37;7.75;;;4.07;;
48550;SDS011;34397;51.176;6.738;2022-07-01T03:18:09;9.07;;;4.32;;
48550;SDS011;34397;51.176;6.738;2022-07-01T03:20:41;11.27;;;4.00;;
48550;SDS011;34397;51.176;6.738;2022-07-01T03:23:14;11.73;;;4.38;;
48550;SDS011;34397;51.176;6.738;2022-07-01T03:25:45;10.90;;;4.43;;
48550;SDS011;34397;51.176;6.738;2022-07-01T03:28:18;7.17;;;4.00;;
48550;SDS011;34397;51.176;6.738;2022-07-01T03:33:22;8.30;;;3.85;;
48550;SDS011;34397;51.176;6.738;2022-07-01T03:35:54;6.78;;;3.38;;
48550;SDS011;34397;51.176;6.738;2022-07-01T03:38:27;5.68;;;3.05;;
48550;SDS011;34397;51.176;6.738;2022-07-01T03:40:59;7.25;;;3.33;;
48550;SDS011;34397;51.176;6.738;2022-07-01T03:43:31;6.78;;;3.30;;
48550;SDS011;34397;51.176;6.738;2022-07-01T03:46:03;6.85;;;3.30;;
48550;SDS011;34397;51.176;6.738;2022-07-01T03:48:35;6.43;;;3.30;;
48550;SDS011;34397;51.176;6.738;2022-07-01T03:51:06;7.05;;;2.85;;
48550;SDS011;34397;51.176;6.738;2022-07-01T03:53:40;7.13;;;3.67;;
48550;SDS011;34397;51.176;6.738;2022-07-01T03:56:29;5.85;;;3.30;;
48550;SDS011;34397;51.176;6.738;2022-07-01T03:59:01;7.32;;;3.42;;
48550;SDS011;34397;51.176;6.738;2022-07-01T04:01:33;5.32;;;3.17;;
48550;SDS011;34397;51.176;6.738;2022-07-01T04:04:05;9.20;;;3.63;;
48550;SDS011;34397;51.176;6.738;2022-07-01T04:06:37;7.40;;;2.78;;
48550;SDS011;34397;51.176;6.738;2022-07-01T04:09:10;7.68;;;3.30;;
48550;SDS011;34397;51.176;6.738;2022-07-01T04:11:44;6.47;;;3.10;;
48550;SDS011;34397;51.176;6.738;2022-07-01T04:14:17;8.75;;;3.75;;
48550;SDS011;34397;51.176;6.738;2022-07-01T04:16:49;6.78;;;3.20;;
48550;SDS011;34397;51.176;6.738;2022-07-01T04:19:21;6.15;;;3.03;;
48550;SDS011;34397;51.176;6.738;2022-07-01T04:21:53;6.30;;;3.47;;
48550;SDS011;34397;51.176;6.738;2022-07-01T04:24:43;8.52;;;3.20;;
48550;SDS011;34397;51.176;6.738;2022-07-01T04:27:15;6.78;;;2.80;;
48550;SDS011;34397;51.176;6.738;2022-07-01T04:29:47;9.38;;;3.10;;
48550;SDS011;34397;51.176;6.738;2022-07-01T04:32:19;5.15;;;2.50;;
48550;SDS011;34397;51.176;6.738;2022-07-01T04:34:51;7.30;;;3.10;;
48550;SDS011;34397;51.176;6.738;2022-07-01T04:37:23;8.05;;;3.03;;
48550;SDS011;34397;51.176;6.738;2022-07-01T04:39:56;6.13;;;3.05;;
48550;SDS011;34397;51.176;6.738;2022-07-01T04:42:28;7.00;;;2.72;;
48550;SDS011;34397;51.176;6.738;2022-07-01T04:45:00;8.38;;;2.78;;
48550;SDS011;34397;51.176;6.738;2022-07-01T04:47:31;6.00;;;2.85;;
48550;SDS011;34397;51.176;6.738;2022-07-01T04:50:04;5.65;;;2.42;;
48550;SDS011;34397;51.176;6.738;2022-07-01T04:52:36;7.30;;;2.72;;
48550;SDS011;34397;51.176;6.738;2022-07-01T04:55:10;7.53;;;3.00;;
48550;SDS011;34397;51.176;6.738;2022-07-01T04:57:42;6.90;;;2.50;;
48550;SDS011;34397;51.176;6.738;2022-07-01T05:00:14;5.28;;;2.53;;
48550;SDS011;34397;51.176;6.738;2022-07-01T05:02:46;5.80;;;2.70;;
48550;SDS011;34397;51.176;6.738;2022-07-01T05:05:18;8.45;;;2.45;;
48550;SDS011;34397;51.176;6.738;2022-07-01T05:07:50;6.40;;;2.67;;
48550;SDS011;34397;51.176;6.738;2022-07-01T05:10:23;6.50;;;2.33;;
48550;SDS011;34397;51.176;6.738;2022-07-01T05:12:55;7.20;;;2.22;;
48550;SDS011;34397;51.176;6.738;2022-07-01T05:15:27;6.38;;;2.72;;
48550;SDS011;34397;51.176;6.738;2022-07-01T05:17:59;7.20;;;3.28;;
48550;SDS011;34397;51.176;6.738;2022-07-01T05:21:00;7.30;;;3.05;;
48550;SDS011;34397;51.176;6.738;2022-07-01T05:23:50;6.65;;;2.90;;
48550;SDS011;34397;51.176;6.738;2022-07-01T05:26:24;7.22;;;2.85;;
48550;SDS011;34397;51.176;6.738;2022-07-01T05:28:56;5.65;;;2.70;;
48550;SDS011;34397;51.176;6.738;2022-07-01T05:31:28;7.18;;;2.90;;
48550;SDS011;34397;51.176;6.738;2022-07-01T05:34:00;6.50;;;2.65;;
48550;SDS011;34397;51.176;6.738;2022-07-01T05:36:32;7.50;;;3.28;;
48550;SDS011;34397;51.176;6.738;2022-07-01T05:39:04;6.38;;;2.95;;
48550;SDS011;34397;51.176;6.738;2022-07-01T05:41:38;8.00;;;3.00;;
48550;SDS011;34397;51.176;6.738;2022-07-01T05:44:10;12.73;;;3.35;;
48550;SDS011;34397;51.176;6.738;2022-07-01T05:46:42;7.57;;;3.17;;
48550;SDS011;34397;51.176;6.738;2022-07-01T05:49:13;8.13;;;3.10;;
48550;SDS011;34397;51.176;6.738;2022-07-01T05:51:45;6.97;;;3.10;;
48550;SDS011;34397;51.176;6.738;2022-07-01T05:54:17;7.95;;;3.38;;
48550;SDS011;34397;51.176;6.738;2022-07-01T05:56:50;8.60;;;3.88;;
48550;SDS011;34397;51.176;6.738;2022-07-01T06:01:54;7.80;;;3.50;;
48550;SDS011;34397;51.176;6.738;2022-07-01T06:04:26;6.25;;;3.20;;
48550;SDS011;34397;51.176;6.738;2022-07-01T06:06:57;7.80;;;3.50;;
48550;SDS011;34397;51.176;6.738;2022-07-01T06:09:29;8.52;;;2.85;;
48550;SDS011;34397;51.176;6.738;2022-07-01T06:12:03;6.32;;;3.65;;
48550;SDS011;34397;51.176;6.738;2022-07-01T06:14:35;8.00;;;3.30;;
48550;SDS011;34397;51.176;6.738;2022-07-01T06:17:07;7.10;;;3.10;;
48550;SDS011;34397;51.176;6.738;2022-07-01T06:19:39;6.57;;;3.08;;
48550;SDS011;34397;51.176;6.738;2022-07-01T06:22:11;6.55;;;3.10;;
48550;SDS011;34397;51.176;6.738;2022-07-01T06:24:46;5.63;;;3.20;;
48550;SDS011;34397;51.176;6.738;2022-07-01T06:27:19;7.20;;;3.40;;
48550;SDS011;34397;51.176;6.738;2022-07-01T06:29:51;7.15;;;3.05;;
48550;SDS011;34397;51.176;6.738;2022-07-01T06:32:23;6.93;;;3.30;;
48550;SDS011;34397;51.176;6.738;2022-07-01T06:34:55;8.45;;;3.45;;
48550;SDS011;34397;51.176;6.738;2022-07-01T06:37:28;6.57;;;3.20;;
48550;SDS011;34397;51.176;6.738;2022-07-01T06:40:03;6.50;;;3.80;;
48550;SDS011;34397;51.176;6.738;2022-07-01T06:42:38;6.30;;;3.67;;
48550;SDS011;34397;51.176;6.738;2022-07-01T06:45:10;6.35;;;3.28;;
48550;SDS011;34397;51.176;6.738;2022-07-01T06:47:42;6.72;;;4.50;;
48550;SDS011;34397;51.176;6.738;2022-07-01T06:50:14;6.90;;;4.00;;
48550;SDS011;34397;51.176;6.738;2022-07-01T06:52:46;8.43;;;3.35;;
48550;SDS011;34397;51.176;6.738;2022-07-01T06:55:18;7.30;;;3.95;;
48550;SDS011;34397;51.176;6.738;2022-07-01T06:57:51;6.43;;;4.22;;
48550;SDS011;34397;51.176;6.738;2022-07-01T07:00:23;5.55;;;3.20;;
48550;SDS011;34397;51.176;6.738;2022-07-01T07:02:55;7.40;;;4.03;;
48550;SDS011;34397;51.176;6.738;2022-07-01T07:05:27;7.82;;;4.10;;
48550;SDS011;34397;51.176;6.738;2022-07-01T07:08:00;5.95;;;3.58;;
48550;SDS011;34397;51.176;6.738;2022-07-01T07:10:33;6.83;;;3.40;;
48550;SDS011;34397;51.176;6.738;2022-07-01T07:13:06;7.72;;;3.50;;
48550;SDS011;34397;51.176;6.738;2022-07-01T07:15:38;7.13;;;3.50;;
48550;SDS011;34397;51.176;6.738;2022-07-01T07:18:11;6.28;;;4.10;;
48550;SDS011;34397;51.176;6.738;2022-07-01T07:20:43;7.47;;;4.10;;
48550;SDS011;34397;51.176;6.738;2022-07-01T07:23:17;6.97;;;3.70;;
48550;SDS011;34397;51.176;6.738;2022-07-01T07:25:49;8.82;;;3.65;;
48550;SDS011;34397;51.176;6.738;2022-07-01T07:28:22;8.30;;;3.70;;
48550;SDS011;34397;51.176;6.738;2022-07-01T07:30:54;7.05;;;3.88;;
48550;SDS011;34397;51.176;6.738;2022-07-01T07:33:26;9.55;;;4.20;;
48550;SDS011;34397;51.176;6.738;2022-07-01T07:35:58;8.15;;;3.80;;
48550;SDS011;34397;51.176;6.738;2022-07-01T07:38:30;6.50;;;3.67;;
48550;SDS011;34397;51.176;6.738;2022-07-01T07:41:02;6.20;;;4.13;;
48550;SDS011;34397;51.176;6.738;2022-07-01T07:43:36;7.35;;;4.07;;
48550;SDS011;34397;51.176;6.738;2022-07-01T07:46:08;7.50;;;4.07;;
48550;SDS011;34397;51.176;6.738;2022-07-01T07:48:39;7.78;;;3.80;;
48550;SDS011;34397;51.176;6.738;2022-07-01T07:51:13;7.68;;;3.60;;
48550;SDS011;34397;51.176;6.738;2022-07-01T07:53:47;7.95;;;4.25;;
48550;SDS011;34397;51.176;6.738;2022-07-01T07:56:19;5.83;;;3.67;;
48550;SDS011;34397;51.176;6.738;2022-07-01T07:58:53;7.38;;;4.47;;
48550;SDS011;34397;51.176;6.738;2022-07-01T08:01:24;7.53;;;4.05;;
48550;SDS011;34397;51.176;6.738;2022-07-01T08:03:56;8.40;;;3.90;;
48550;SDS011;34397;51.176;6.738;2022-07-01T08:06:28;7.07;;;3.60;;
48550;SDS011;34397;51.176;6.738;2022-07-01T08:09:01;8.07;;;3.85;;
48550;SDS011;34397;51.176;6.738;2022-07-01T08:11:33;8.90;;;3.78;;
48550;SDS011;34397;51.176;6.738;2022-07-01T08:14:06;11.70;;;4.00;;
48550;SDS011;34397;51.176;6.738;2022-07-01T08:16:38;6.03;;;3.58;;
48550;SDS011;34397;51.176;6.738;2022-07-01T08:19:10;8.13;;;3.83;;
48550;SDS011;34397;51.176;6.738;2022-07-01T08:21:42;5.82;;;2.97;;
48550;SDS011;34397;51.176;6.738;2022-07-01T08:24:14;6.00;;;3.10;;
48550;SDS011;34397;51.176;6.738;2022-07-01T08:26:46;5.55;;;3.30;;
48550;SDS011;34397;51.176;6.738;2022-07-01T08:29:20;7.47;;;4.18;;
48550;SDS011;34397;51.176;6.738;2022-07-01T08:31:51;7.80;;;4.78;;
48550;SDS011;34397;51.176;6.738;2022-07-01T08:34:23;7.28;;;3.97;;
48550;SDS011;34397;51.176;6.738;2022-07-01T08:36:55;9.88;;;4.70;;
48550;SDS011;34397;51.176;6.738;2022-07-01T08:39:27;7.45;;;3.97;;
48550;SDS011;34397;51.176;6.738;2022-07-01T08:41:59;6.97;;;3.70;;
48550;SDS011;34397;51.176;6.738;2022-07-01T08:44:32;7.10;;;3.95;;
48550;SDS011;34397;51.176;6.738;2022-07-01T08:47:04;7.32;;;3.95;;
48550;SDS011;34397;51.176;6.738;2022-07-01T08:49:36;5.80;;;3.60;;
48550;SDS011;34397;51.176;6.738;2022-07-01T08:52:08;6.53;;;3.95;;
48550;SDS011;34397;51.176;6.738;2022-07-01T08:54:41;7.28;;;3.55;;
48550;SDS011;34397;51.176;6.738;2022-07-01T08:57:14;5.30;;;3.25;;
48550;SDS011;34397;51.176;6.738;2022-07-01T09:00:02;6.63;;;3.42;;
48550;SDS011;34397;51.176;6.738;2022-07-01T09:02:48;5.38;;;3.17;;
48550;SDS011;34397;51.176;6.738;2022-07-01T09:05:23;6.47;;;3.35;;
48550;SDS011;34397;51.176;6.738;2022-07-01T09:07:58;5.35;;;3.00;;
48550;SDS011;34397;51.176;6.738;2022-07-01T09:10:32;7.70;;;3.10;;
48550;SDS011;34397;51.176;6.738;2022-07-01T09:13:05;6.07;;;2.60;;
48550;SDS011;34397;51.176;6.738;2022-07-01T09:15:42;5.40;;;2.05;;
48550;SDS011;34397;51.176;6.738;2022-07-01T09:18:14;5.47;;;2.40;;
48550;SDS011;34397;51.176;6.738;2022-07-01T09:20:48;5.72;;;2.60;;
48550;SDS011;34397;51.176;6.738;2022-07-01T09:23:19;4.78;;;2.17;;
48550;SDS011;34397;51.176;6.738;2022-07-01T09:25:51;4.32;;;2.40;;
48550;SDS011;34397;51.176;6.738;2022-07-01T09:28:23;4.95;;;2.17;;
48550;SDS011;34397;51.176;6.738;2022-07-01T09:30:58;4.90;;;2.00;;
48550;SDS011;34397;51.176;6.738;2022-07-01T09:33:30;7.45;;;2.53;;
48550;SDS011;34397;51.176;6.738;2022-07-01T09:36:02;4.95;;;2.22;;
48550;SDS011;34397;51.176;6.738;2022-07-01T09:38:34;5.10;;;2.10;;
48550;SDS011;34397;51.176;6.738;2022-07-01T09:41:16;5.00;;;2.22;;
48550;SDS011;34397;51.176;6.738;2022-07-01T09:43:47;4.55;;;2.03;;
48550;SDS011;34397;51.176;6.738;2022-07-01T09:46:21;4.53;;;1.90;;
48550;SDS011;34397;51.176;6.738;2022-07-01T09:48:53;4.38;;;1.95;;
48550;SDS011;34397;51.176;6.738;2022-07-01T09:51:25;4.00;;;2.07;;
48550;SDS011;34397;51.176;6.738;2022-07-01T09:53:57;4.30;;;2.10;;
48550;SDS011;34397;51.176;6.738;2022-07-01T09:56:29;4.47;;;1.90;;
48550;SDS011;34397;51.176;6.738;2022-07-01T09:59:01;3.20;;;1.83;;
48550;SDS011;34397;51.176;6.738;2022-07-01T10:01:34;3.25;;;1.90;;
48550;SDS011;34397;51.176;6.738;2022-07-01T10:04:07;5.18;;;1.77;;
48550;SDS011;34397;51.176;6.738;2022-07-01T10:12:48;7.50;;;2.08;;
48550;SDS011;34397;51.176;6.738;2022-07-01T10:15:23;5.53;;;1.98;;
48550;SDS011;34397;51.176;6.738;2022-07-01T10:17:57;5.07;;;1.50;;
48550;SDS011;34397;51.176;6.738;2022-07-01T10:20:29;2.55;;;1.40;;
48550;SDS011;34397;51.176;6.738;2022-07-01T10:23:02;2.92;;;1.60;;
48550;SDS011;34397;51.176;6.738;2022-07-01T10:25:40;3.38;;;1.60;;
48550;SDS011;34397;51.176;6.738;2022-07-01T10:28:14;5.53;;;1.90;;
48550;SDS011;34397;51.176;6.738;2022-07-01T10:30:57;3.55;;;1.52;;
48550;SDS011;34397;51.176;6.738;2022-07-01T10:33:34;3.08;;;1.38;;
48550;SDS011;34397;51.176;6.738;2022-07-01T10:36:14;4.55;;;2.10;;
48550;SDS011;34397;51.176;6.738;2022-07-01T10:41:58;3.50;;;1.40;;
48550;SDS011;34397;51.176;6.738;2022-07-01T10:44:32;3.65;;;1.60;;
48550;SDS011;34397;51.176;6.738;2022-07-01T10:47:07;3.30;;;1.42;;
48550;SDS011;34397;51.176;6.738;2022-07-01T10:49:54;2.80;;;1.30;;
48550;SDS011;34397;51.176;6.738;2022-07-01T10:52:28;2.75;;;1.30;;
48550;SDS011;34397;51.176;6.738;2022-07-01T10:55:00;2.80;;;1.30;;
48550;SDS011;34397;51.176;6.738;2022-07-01T10:57:37;3.53;;;1.30;;
48550;SDS011;34397;51.176;6.738;2022-07-01T11:00:24;4.10;;;1.30;;
48550;SDS011;34397;51.176;6.738;2022-07-01T11:03:06;2.45;;;1.00;;
48550;SDS011;34397;51.176;6.738;2022-07-01T11:05:49;4.65;;;1.60;;
48550;SDS011;34397;51.176;6.738;2022-07-01T11:08:24;3.78;;;1.40;;
48550;SDS011;34397;51.176;6.738;2022-07-01T11:10:56;5.77;;;1.53;;
48550;SDS011;34397;51.176;6.738;2022-07-01T11:13:32;4.20;;;1.33;;
48550;SDS011;34397;51.176;6.738;2022-07-01T11:16:06;2.65;;;1.10;;
48550;SDS011;34397;51.176;6.738;2022-07-01T11:18:40;4.15;;;1.40;;
48550;SDS011;34397;51.176;6.738;2022-07-01T11:21:13;3.07;;;1.10;;
48550;SDS011;34397;51.176;6.738;2022-07-01T11:23:51;2.75;;;1.17;;
48550;SDS011;34397;51.176;6.738;2022-07-01T11:26:24;3.72;;;1.45;;
48550;SDS011;34397;51.176;6.738;2022-07-01T11:28:56;3.67;;;1.30;;
48550;SDS011;34397;51.176;6.738;2022-07-01T11:31:29;1.93;;;0.90;;
48550;SDS011;34397;51.176;6.738;2022-07-01T11:34:03;1.85;;;1.00;;
48550;SDS011;34397;51.176;6.738;2022-07-01T11:36:37;2.78;;;0.90;;
48550;SDS011;34397;51.176;6.738;2022-07-01T11:39:32;4.22;;;1.40;;
48550;SDS011;34397;51.176;6.738;2022-07-01T11:42:06;4.05;;;1.23;;
48550;SDS011;34397;51.176;6.738;2022-07-01T11:44:39;2.63;;;0.80;;
48550;SDS011;34397;51.176;6.738;2022-07-01T11:47:22;2.38;;;0.63;;
48550;SDS011;34397;51.176;6.738;2022-07-01T11:49:55;2.05;;;0.85;;
48550;SDS011;34397;51.176;6.738;2022-07-01T11:52:29;4.53;;;1.75;;
48550;SDS011;34397;51.176;6.738;2022-07-01T11:55:02;3.60;;;1.00;;
48550;SDS011;34397;51.176;6.738;2022-07-01T11:57:35;2.58;;;0.95;;
48550;SDS011;34397;51.176;6.738;2022-07-01T12:00:08;2.17;;;0.82;;
48550;SDS011;34397;51.176;6.738;2022-07-01T12:02:42;4.05;;;1.80;;
48550;SDS011;34397;51.176;6.738;2022-07-01T12:05:13;3.70;;;1.47;;
48550;SDS011;34397;51.176;6.738;2022-07-01T12:07:47;2.92;;;1.25;;
48550;SDS011;34397;51.176;6.738;2022-07-01T12:10:22;2.15;;;0.90;;
48550;SDS011;34397;51.176;6.738;2022-07-01T12:12:55;4.90;;;1.58;;
48550;SDS011;34397;51.176;6.738;2022-07-01T12:15:27;2.27;;;0.80;;
48550;SDS011;34397;51.176;6.738;2022-07-01T12:18:05;1.37;;;0.60;;
48550;SDS011;34397;51.176;6.738;2022-07-01T12:20:37;1.95;;;0.75;;
48550;SDS011;34397;51.176;6.738;2022-07-01T12:23:13;3.30;;;0.77;;
48550;SDS011;34397;51.176;6.738;2022-07-01T12:25:46;1.80;;;0.80;;
48550;SDS011;34397;51.176;6.738;2022-07-01T12:28:29;1.90;;;0.70;;
48550;SDS011;34397;51.176;6.738;2022-07-01T12:31:04;5.05;;;0.90;;
48550;SDS011;34397;51.176;6.738;2022-07-01T12:33:38;2.38;;;0.73;;
48550;SDS011;34397;51.176;6.738;2022-07-01T12:36:19;1.37;;;0.70;;
48550;SDS011;34397;51.176;6.738;2022-07-01T12:39:04;2.50;;;0.60;;
48550;SDS011;34397;51.176;6.738;2022-07-01T12:41:37;1.90;;;0.88;;
48550;SDS011;34397;51.176;6.738;2022-07-01T12:44:19;29.80;;;8.45;;
48550;SDS011;34397;51.176;6.738;2022-07-01T12:46:53;1.55;;;0.77;;
48550;SDS011;34397;51.176;6.738;2022-07-01T12:51:57;1.75;;;0.73;;
48550;SDS011;34397;51.176;6.738;2022-07-01T12:54:31;2.00;;;0.73;;
48550;SDS011;34397;51.176;6.738;2022-07-01T12:57:04;0.85;;;0.60;;
48550;SDS011;34397;51.176;6.738;2022-07-01T12:59:36;1.23;;;0.70;;
48550;SDS011;34397;51.176;6.738;2022-07-01T13:02:08;2.90;;;0.80;;
48550;SDS011;34397;51.176;6.738;2022-07-01T13:04:40;1.98;;;0.70;;
48550;SDS011;34397;51.176;6.738;2022-07-01T13:07:12;3.07;;;0.83;;
48550;SDS011;34397;51.176;6.738;2022-07-01T13:09:45;1.93;;;0.80;;
48550;SDS011;34397;51.176;6.738;2022-07-01T13:12:17;2.05;;;0.70;;
48550;SDS011;34397;51.176;6.738;2022-07-01T13:14:49;3.43;;;0.90;;
48550;SDS011;34397;51.176;6.738;2022-07-01T13:17:20;3.53;;;1.00;;
48550;SDS011;34397;51.176;6.738;2022-07-01T13:19:52;2.90;;;0.90;;
48550;SDS011;34397;51.176;6.738;2022-07-01T13:22:24;1.98;;;0.80;;
48550;SDS011;34397;51.176;6.738;2022-07-01T13:24:58;1.83;;;0.70;;
48550;SDS011;34397;51.176;6.738;2022-07-01T13:27:30;2.20;;;0.80;;
48550;SDS011;34397;51.176;6.738;2022-07-01T13:30:02;3.03;;;0.70;;
48550;SDS011;34397;51.176;6.738;2022-07-01T13:32:36;2.28;;;1.10;;
48550;SDS011;34397;51.176;6.738;2022-07-01T13:35:09;2.08;;;0.80;;
48550;SDS011;34397;51.176;6.738;2022-07-01T13:37:43;1.52;;;0.80;;
48550;SDS011;34397;51.176;6.738;2022-07-01T13:40:16;0.98;;;0.70;;
48550;SDS011;34397;51.176;6.738;2022-07-01T13:42:49;1.50;;;0.80;;
48550;SDS011;34397;51.176;6.738;2022-07-01T13:45:20;3.85;;;1.10;;
48550;SDS011;34397;51.176;6.738;2022-07-01T13:47:53;4.43;;;0.90;;
48550;SDS011;34397;51.176;6.738;2022-07-01T13:50:25;2.90;;;0.80;;
48550;SDS011;34397;51.176;6.738;2022-07-01T13:52:57;3.27;;;1.10;;
48550;SDS011;34397;51.176;6.738;2022-07-01T13:55:30;2.60;;;0.90;;
48550;SDS011;34397;51.176;6.738;2022-07-01T13:58:02;2.88;;;0.80;;
48550;SDS011;34397;51.176;6.738;2022-07-01T14:00:34;3.63;;;0.80;;
48550;SDS011;34397;51.176;6.738;2022-07-01T14:03:06;1.60;;;0.75;;
48550;SDS011;34397;51.176;6.738;2022-07-01T14:05:40;2.10;;;0.60;;
48550;SDS011;34397;51.176;6.738;2022-07-01T14:08:12;3.13;;;0.80;;
48550;SDS011;34397;51.176;6.738;2022-07-01T14:10:45;2.63;;;1.00;;
48550;SDS011;34397;51.176;6.738;2022-07-01T14:13:17;1.15;;;0.60;;
48550;SDS011;34397;51.176;6.738;2022-07-01T14:15:51;1.90;;;0.70;;
48550;SDS011;34397;51.176;6.738;2022-07-01T14:18:24;1.98;;;0.77;;
48550;SDS011;34397;51.176;6.738;2022-07-01T14:20:55;2.27;;;0.80;;
48550;SDS011;34397;51.176;6.738;2022-07-01T14:23:27;1.77;;;0.70;;
48550;SDS011;34397;51.176;6.738;2022-07-01T14:26:00;1.63;;;0.80;;
48550;SDS011;34397;51.176;6.738;2022-07-01T14:28:33;2.35;;;0.70;;
48550;SDS011;34397;51.176;6.738;2022-07-01T14:31:05;3.20;;;0.80;;
48550;SDS011;34397;51.176;6.738;2022-07-01T14:33:38;3.75;;;0.90;;
48550;SDS011;34397;51.176;6.738;2022-07-01T14:36:10;3.20;;;1.00;;
48550;SDS011;34397;51.176;6.738;2022-07-01T14:38:42;3.13;;;0.90;;
48550;SDS011;34397;51.176;6.738;2022-07-01T14:41:16;2.95;;;0.70;;
48550;SDS011;34397;51.176;6.738;2022-07-01T14:43:48;1.80;;;0.75;;
48550;SDS011;34397;51.176;6.738;2022-07-01T14:46:23;1.17;;;0.70;;
48550;SDS011;34397;51.176;6.738;2022-07-01T14:48:55;2.65;;;0.90;;
48550;SDS011;34397;51.176;6.738;2022-07-01T14:51:53;1.95;;;0.70;;
48550;SDS011;34397;51.176;6.738;2022-07-01T14:54:26;2.75;;;0.80;;
48550;SDS011;34397;51.176;6.738;2022-07-01T14:57:03;5.07;;;1.00;;
48550;SDS011;34397;51.176;6.738;2022-07-01T14:59:38;1.90;;;0.82;;
48550;SDS011;34397;51.176;6.738;2022-07-01T15:02:17;2.30;;;0.70;;
48550;SDS011;34397;51.176;6.738;2022-07-01T15:04:50;2.97;;;0.88;;
48550;SDS011;34397;51.176;6.738;2022-07-01T15:07:26;2.40;;;0.98;;
48550;SDS011;34397;51.176;6.738;2022-07-01T15:12:33;1.50;;;0.90;;
48550;SDS011;34397;51.176;6.738;2022-07-01T15:15:05;2.20;;;1.10;;
48550;SDS011;34397;51.176;6.738;2022-07-01T15:17:40;1.60;;;1.13;;
48550;SDS011;34397;51.176;6.738;2022-07-01T15:20:17;2.88;;;1.10;;
48550;SDS011;34397;51.176;6.738;2022-07-01T15:22:51;3.30;;;1.00;;
48550;SDS011;34397;51.176;6.738;2022-07-01T15:25:23;3.88;;;1.17;;
48550;SDS011;34397;51.176;6.738;2022-07-01T15:27:56;2.63;;;0.95;;
48550;SDS011;34397;51.176;6.738;2022-07-01T15:30:28;4.43;;;1.20;;
48550;SDS011;34397;51.176;6.738;2022-07-01T15:33:00;4.53;;;1.10;;
48550;SDS011;34397;51.176;6.738;2022-07-01T15:35:32;1.17;;;0.80;;
48550;SDS011;34397;51.176;6.738;2022-07-01T15:38:04;2.42;;;0.98;;
48550;SDS011;34397;51.176;6.738;2022-07-01T15:40:36;3.35;;;1.33;;
48550;SDS011;34397;51.176;6.738;2022-07-01T15:43:10;3.05;;;0.80;;
48550;SDS011;34397;51.176;6.738;2022-07-01T15:45:44;1.88;;;0.85;;
48550;SDS011;34397;51.176;6.738;2022-07-01T15:48:18;1.45;;;0.77;;
48550;SDS011;34397;51.176;6.738;2022-07-01T15:50:51;3.28;;;1.05;;
48550;SDS011;34397;51.176;6.738;2022-07-01T15:53:23;2.03;;;0.80;;
48550;SDS011;34397;51.176;6.738;2022-07-01T15:55:58;2.22;;;0.80;;